createdAt,value
2022-10-13T00:01:13.838Z,10.20
2022-10-13T00:03:42.404Z,10.14
2022-10-13T00:06:11.222Z,10.19
2022-10-13T00:08:40.858Z,10.19
2022-10-13T00:11:24.795Z,10.12
2022-10-13T00:13:56.637Z,10.12
2022-10-13T00:16:25.238Z,10.04
2022-10-13T00:18:53.127Z,10.03
2022-10-13T00:21:24.687Z,10.04
2022-10-13T00:23:53.980Z,10.03
2022-10-13T00:26:24.169Z,9.96
2022-10-13T00:28:53.108Z,9.93
2022-10-13T00:31:26.412Z,9.87
2022-10-13T00:33:54.297Z,9.90
2022-10-13T00:36:23.514Z,9.87
2022-10-13T00:38:52.035Z,9.85
2022-10-13T00:41:21.589Z,9.84
2022-10-13T00:44:26.108Z,9.85
2022-10-13T00:46:53.711Z,9.76
2022-10-13T00:49:21.202Z,9.65
2022-10-13T00:51:50.940Z,9.53
2022-10-13T00:54:22.423Z,9.52
2022-10-13T00:56:51.576Z,9.52
2022-10-13T00:59:27.406Z,9.43
2022-10-13T01:01:56.179Z,9.41
2022-10-13T01:04:28.111Z,9.40
2022-10-13T01:06:56.911Z,9.41
2022-10-13T01:09:24.974Z,9.28
2022-10-13T01:12:20.185Z,9.16
2022-10-13T01:14:53.940Z,9.15
2022-10-13T01:17:42.197Z,9.04
2022-10-13T01:20:43.639Z,8.90
2022-10-13T01:23:35.945Z,8.79
2022-10-13T01:26:18.521Z,8.75
2022-10-13T01:28:58.049Z,8.73
2022-10-13T01:31:41.002Z,8.72
2022-10-13T01:34:12.217Z,8.63
2022-10-13T01:37:04.542Z,8.58
2022-10-13T01:39:43.171Z,8.60
2022-10-13T01:42:22.602Z,8.52
2022-10-13T01:44:54.895Z,8.47
2022-10-13T01:47:26.336Z,8.44
2022-10-13T01:49:56.451Z,8.46
2022-10-13T01:52:31.349Z,8.44
2022-10-13T01:55:10.011Z,8.44
2022-10-13T01:57:41.805Z,8.43
2022-10-13T02:00:09.848Z,8.46
2022-10-13T02:03:10.227Z,8.42
2022-10-13T02:06:10.223Z,8.39
2022-10-13T02:08:47.748Z,8.30
2022-10-13T02:11:19.528Z,8.31
2022-10-13T02:14:03.414Z,8.29
2022-10-13T02:16:36.704Z,8.20
2022-10-13T02:19:09.373Z,8.17
2022-10-13T02:21:37.808Z,8.18
2022-10-13T02:24:06.633Z,8.13
2022-10-13T02:26:36.122Z,8.23
2022-10-13T02:29:13.438Z,8.19
2022-10-13T02:31:45.820Z,8.15
2022-10-13T02:34:15.139Z,8.19
2022-10-13T02:36:48.005Z,8.19
2022-10-13T02:39:16.071Z,8.13
2022-10-13T02:41:44.458Z,8.14
2022-10-13T02:44:11.914Z,8.18
2022-10-13T02:46:42.356Z,8.14
2022-10-13T02:49:10.939Z,8.10
2022-10-13T02:51:41.151Z,8.14
2022-10-13T02:54:08.809Z,8.08
2022-10-13T02:56:36.303Z,8.07
2022-10-13T02:59:04.311Z,7.99
2022-10-13T03:01:32.058Z,7.96
2022-10-13T03:03:59.832Z,7.95
2022-10-13T03:06:27.756Z,7.93
2022-10-13T03:08:55.501Z,7.92
2022-10-13T03:11:26.457Z,7.95
2022-10-13T03:13:54.331Z,7.98
2022-10-13T03:16:21.794Z,8.02
2022-10-13T03:18:49.533Z,7.90
2022-10-13T03:21:17.136Z,7.93
2022-10-13T03:23:44.873Z,7.81
2022-10-13T03:26:12.340Z,7.84
2022-10-13T03:28:39.933Z,7.86
2022-10-13T03:31:09.734Z,7.82
2022-10-13T03:33:37.194Z,7.82
2022-10-13T03:36:05.914Z,7.81
2022-10-13T03:38:34.960Z,7.86
2022-10-13T03:41:07.543Z,7.83
2022-10-13T03:43:35.567Z,7.82
2022-10-13T03:46:06.459Z,7.82
2022-10-13T03:48:36.307Z,7.83
2022-10-13T03:51:08.933Z,7.85
2022-10-13T03:53:38.072Z,7.83
2022-10-13T03:56:06.736Z,7.78
2022-10-13T03:58:36.104Z,7.75
2022-10-13T04:01:05.401Z,7.75
2022-10-13T04:03:34.152Z,7.71
2022-10-13T04:06:06.249Z,7.70
2022-10-13T04:08:34.503Z,7.72
2022-10-13T04:11:07.313Z,7.70
2022-10-13T04:13:35.551Z,7.66
2022-10-13T04:16:04.752Z,7.63
2022-10-13T04:18:32.807Z,7.67
2022-10-13T04:21:00.896Z,7.66
2022-10-13T04:23:28.587Z,7.63
2022-10-13T04:25:56.976Z,7.63
2022-10-13T04:28:24.920Z,7.65
2022-10-13T04:30:52.721Z,7.70
2022-10-13T04:33:24.803Z,7.61
2022-10-13T04:35:53.622Z,7.57
2022-10-13T04:38:21.134Z,7.57
2022-10-13T04:40:48.632Z,7.67
2022-10-13T04:43:16.334Z,7.67
2022-10-13T04:45:43.981Z,7.63
2022-10-13T04:48:11.588Z,7.59
2022-10-13T04:50:39.011Z,7.59
2022-10-13T04:53:06.629Z,7.55
2022-10-13T04:55:36.275Z,7.59
2022-10-13T04:58:04.048Z,7.58
2022-10-13T05:00:31.764Z,7.63
2022-10-13T05:02:59.420Z,7.60
2022-10-13T05:05:27.017Z,7.66
2022-10-13T05:07:55.720Z,7.68
2022-10-13T05:10:23.217Z,7.73
2022-10-13T05:12:53.759Z,7.75
2022-10-13T05:15:21.878Z,7.73
2022-10-13T05:17:49.626Z,7.77
2022-10-13T05:20:17.838Z,7.79
2022-10-13T05:22:46.936Z,7.74
2022-10-13T05:25:14.439Z,7.83
2022-10-13T05:27:42.539Z,7.92
2022-10-13T05:30:11.092Z,7.88
2022-10-13T05:32:38.757Z,7.92
2022-10-13T05:35:06.524Z,7.95
2022-10-13T05:37:34.795Z,7.94
2022-10-13T05:40:02.346Z,7.98
2022-10-13T05:42:30.560Z,8.07
2022-10-13T05:44:59.489Z,8.13
2022-10-13T05:47:28.382Z,8.17
2022-10-13T05:49:57.567Z,8.18
2022-10-13T05:52:26.067Z,8.20
2022-10-13T05:54:59.233Z,8.28
2022-10-13T05:57:31.454Z,8.25
2022-10-13T06:00:04.674Z,8.26
2022-10-13T06:02:45.354Z,8.33
2022-10-13T06:05:16.444Z,8.30
2022-10-13T06:07:48.153Z,8.33
2022-10-13T06:10:16.139Z,8.30
2022-10-13T06:12:43.779Z,8.29
2022-10-13T06:15:13.412Z,8.33
2022-10-13T06:17:42.365Z,8.34
2022-10-13T06:20:10.450Z,8.41
2022-10-13T06:22:39.062Z,8.49
2022-10-13T06:25:08.122Z,8.54
2022-10-13T06:27:36.407Z,8.58
2022-10-13T06:30:04.544Z,8.63
2022-10-13T06:32:32.234Z,8.57
2022-10-13T06:34:59.854Z,8.67
2022-10-13T06:37:27.769Z,8.68
2022-10-13T06:39:55.824Z,8.67
2022-10-13T06:42:23.798Z,8.67
2022-10-13T06:45:10.446Z,8.72
2022-10-13T06:47:41.160Z,8.81
2022-10-13T06:50:09.113Z,8.85
2022-10-13T06:52:37.365Z,8.84
2022-10-13T06:55:05.676Z,8.91
2022-10-13T06:57:34.168Z,8.86
2022-10-13T07:00:05.184Z,8.94
2022-10-13T07:02:33.220Z,8.90
2022-10-13T07:05:01.004Z,8.89
2022-10-13T07:07:29.006Z,9.01
2022-10-13T07:09:56.805Z,9.05
2022-10-13T07:12:24.664Z,9.15
2022-10-13T07:14:54.432Z,9.11
2022-10-13T07:17:22.496Z,9.17
2022-10-13T07:19:52.792Z,9.20
2022-10-13T07:22:24.048Z,9.29
2022-10-13T07:24:51.616Z,9.42
2022-10-13T07:27:20.655Z,9.45
2022-10-13T07:29:48.439Z,9.51
2022-10-13T07:32:16.865Z,9.57
2022-10-13T07:34:44.358Z,9.68
2022-10-13T07:37:14.735Z,9.74
2022-10-13T07:39:42.732Z,9.82
2022-10-13T07:42:10.343Z,9.85
2022-10-13T07:44:38.818Z,9.94
2022-10-13T07:47:06.289Z,10.07
2022-10-13T07:49:33.832Z,10.13
2022-10-13T07:52:04.869Z,10.23
2022-10-13T07:54:33.146Z,10.34
2022-10-13T07:57:01.548Z,10.38
2022-10-13T07:59:29.602Z,10.40
2022-10-13T08:01:57.319Z,10.49
2022-10-13T08:04:25.528Z,10.57
2022-10-13T08:06:53.098Z,10.62
2022-10-13T08:09:21.254Z,10.62
2022-10-13T08:11:49.030Z,10.83
2022-10-13T08:14:19.247Z,10.86
2022-10-13T08:16:49.912Z,11.05
2022-10-13T08:19:22.244Z,11.12
2022-10-13T08:22:34.322Z,11.24
2022-10-13T08:25:02.600Z,11.37
2022-10-13T08:27:49.545Z,11.40
2022-10-13T08:30:19.485Z,11.50
2022-10-13T08:32:47.478Z,11.61
2022-10-13T08:35:15.119Z,11.67
2022-10-13T08:37:43.109Z,11.79
2022-10-13T08:40:17.808Z,11.87
2022-10-13T08:42:46.688Z,12.05
2022-10-13T08:45:40.795Z,12.16
2022-10-13T08:48:18.804Z,12.30
2022-10-13T08:50:51.120Z,12.41
2022-10-13T08:53:23.460Z,12.41
2022-10-13T08:56:02.341Z,12.53
2022-10-13T08:58:34.161Z,12.59
2022-10-13T09:01:11.327Z,12.72
2022-10-13T09:03:51.369Z,12.88
2022-10-13T09:06:32.068Z,12.91
2022-10-13T09:09:04.200Z,13.02
2022-10-13T09:11:48.186Z,13.09
2022-10-13T09:14:28.214Z,13.13
2022-10-13T09:19:44.711Z,13.10
2022-10-13T09:22:24.713Z,13.13
2022-10-13T09:25:08.174Z,13.24
2022-10-13T09:27:58.509Z,13.27
2022-10-13T09:30:50.224Z,13.39
2022-10-13T09:33:24.220Z,13.48
2022-10-13T09:36:02.629Z,13.58
2022-10-13T09:38:31.029Z,13.62
2022-10-13T09:41:10.090Z,13.61
2022-10-13T09:43:46.684Z,13.62
2022-10-13T09:46:44.557Z,13.71
2022-10-13T09:49:42.401Z,13.72
2022-10-13T09:52:16.345Z,13.85
2022-10-13T09:54:48.250Z,13.91
2022-10-13T09:57:43.492Z,13.95
2022-10-13T10:00:14.992Z,14.02
2022-10-13T10:03:15.162Z,14.13
2022-10-13T10:05:56.677Z,14.21
2022-10-13T10:08:33.561Z,14.15
2022-10-13T10:11:06.103Z,14.19
2022-10-13T10:13:37.119Z,14.28
2022-10-13T10:16:31.714Z,14.31
2022-10-13T10:19:14.057Z,14.61
2022-10-13T10:21:55.123Z,14.71
2022-10-13T10:24:28.044Z,14.81
2022-10-13T10:27:26.792Z,14.69
2022-10-13T10:30:04.506Z,14.43
2022-10-13T10:32:54.541Z,14.27
2022-10-13T10:35:31.730Z,14.08
2022-10-13T10:38:14.316Z,13.93
2022-10-13T10:41:03.842Z,13.83
2022-10-13T10:43:47.136Z,13.73
2022-10-13T10:46:31.293Z,13.74
2022-10-13T10:49:02.788Z,13.74
2022-10-13T10:51:37.865Z,13.87
2022-10-13T10:54:26.227Z,14.33
2022-10-13T10:57:16.898Z,14.58
2022-10-13T11:00:02.035Z,14.69
2022-10-13T11:03:08.186Z,14.55
2022-10-13T11:06:03.857Z,14.65
2022-10-13T11:08:41.105Z,14.59
2022-10-13T11:11:29.326Z,14.55
2022-10-13T11:13:59.491Z,14.69
2022-10-13T11:16:29.117Z,14.83
2022-10-13T11:19:05.979Z,14.86
2022-10-13T11:21:52.986Z,14.84
2022-10-13T11:24:42.427Z,14.84
2022-10-13T11:27:14.793Z,14.74
2022-10-13T11:29:52.339Z,14.66
2022-10-13T11:32:26.350Z,14.82
2022-10-13T11:35:20.485Z,14.88
2022-10-13T11:38:06.916Z,14.87
2022-10-13T11:41:09.300Z,15.01
2022-10-13T11:43:39.996Z,14.87
2022-10-13T11:46:31.266Z,15.09
2022-10-13T11:49:44.353Z,15.08
2022-10-13T11:52:25.574Z,14.89
2022-10-13T11:55:03.076Z,14.69
2022-10-13T11:57:32.941Z,14.45
2022-10-13T12:00:04.303Z,14.34
2022-10-13T12:02:52.012Z,14.17
2022-10-13T12:05:22.428Z,14.06
2022-10-13T12:07:51.919Z,14.08
2022-10-13T12:10:32.853Z,14.05
2022-10-13T12:13:02.965Z,14.27
2022-10-13T12:15:34.179Z,14.62
2022-10-13T12:18:18.973Z,14.97
2022-10-13T12:20:53.642Z,15.21
2022-10-13T12:23:21.624Z,15.17
2022-10-13T12:25:57.033Z,15.05
2022-10-13T12:28:28.284Z,14.89
2022-10-13T12:30:59.052Z,14.69
2022-10-13T12:33:32.471Z,14.60
2022-10-13T12:36:34.390Z,14.50
2022-10-13T12:39:11.948Z,14.40
2022-10-13T12:41:48.100Z,14.26
2022-10-13T12:44:21.019Z,14.30
2022-10-13T12:46:55.542Z,14.48
2022-10-13T12:49:27.163Z,14.54
2022-10-13T12:52:16.107Z,14.55
2022-10-13T12:54:50.292Z,14.47
2022-10-13T12:57:36.300Z,14.43
2022-10-13T13:00:19.214Z,14.33
2022-10-13T13:02:54.614Z,14.28
2022-10-13T13:05:37.587Z,14.16
2022-10-13T13:08:22.195Z,14.10
2022-10-13T13:11:33.520Z,14.05
2022-10-13T13:14:33.066Z,14.29
2022-10-13T13:17:03.371Z,14.50
2022-10-13T13:19:34.013Z,14.68
2022-10-13T13:22:04.987Z,14.75
2022-10-13T13:24:40.321Z,14.78
2022-10-13T13:27:19.738Z,14.72
2022-10-13T13:29:48.023Z,14.59
2022-10-13T13:32:20.099Z,14.45
2022-10-13T13:34:49.556Z,14.40
2022-10-13T13:37:30.968Z,14.27
2022-10-13T13:40:00.426Z,14.18
2022-10-13T13:42:29.229Z,14.14
2022-10-13T13:44:56.980Z,14.08
2022-10-13T13:47:28.661Z,14.04
2022-10-13T13:49:57.194Z,13.98
2022-10-13T13:52:26.154Z,13.95
2022-10-13T13:54:53.699Z,13.99
2022-10-13T13:57:21.537Z,13.91
2022-10-13T13:59:49.215Z,13.85
2022-10-13T14:02:24.708Z,13.84
2022-10-13T14:04:53.470Z,13.77
2022-10-13T14:07:23.816Z,13.73
2022-10-13T14:09:53.766Z,13.66
2022-10-13T14:12:23.399Z,13.61
2022-10-13T14:14:52.295Z,13.53
2022-10-13T14:17:23.305Z,13.51
2022-10-13T14:19:50.752Z,13.47
2022-10-13T14:22:18.353Z,13.45
2022-10-13T14:24:45.870Z,13.40
2022-10-13T14:27:13.734Z,13.39
2022-10-13T14:29:41.189Z,13.33
2022-10-13T14:32:08.669Z,13.30
2022-10-13T14:34:36.201Z,13.26
2022-10-13T14:37:03.924Z,13.20
2022-10-13T14:39:32.197Z,13.19
2022-10-13T14:41:59.700Z,13.18
2022-10-13T14:44:27.156Z,13.12
2022-10-13T14:46:54.802Z,13.06
2022-10-13T14:49:27.910Z,13.02
2022-10-13T14:51:59.796Z,12.96
2022-10-13T14:54:28.735Z,12.91
2022-10-13T14:56:56.148Z,12.92
2022-10-13T14:59:24.059Z,12.86
2022-10-13T15:01:54.719Z,12.82
2022-10-13T15:04:22.512Z,12.76
2022-10-13T15:06:49.996Z,12.68
2022-10-13T15:09:17.584Z,12.60
2022-10-13T15:11:46.373Z,12.51
2022-10-13T15:14:13.854Z,12.48
2022-10-13T15:16:51.806Z,12.45
2022-10-13T15:19:23.246Z,12.44
2022-10-13T15:21:51.607Z,12.39
2022-10-13T15:24:19.493Z,12.33
2022-10-13T15:26:52.657Z,12.30
2022-10-13T15:29:20.170Z,12.26
2022-10-13T15:31:47.928Z,12.18
2022-10-13T15:34:15.422Z,12.15
2022-10-13T15:36:43.010Z,12.13
2022-10-13T15:39:11.385Z,12.09
2022-10-13T15:41:39.315Z,11.99
2022-10-13T15:44:07.033Z,11.94
2022-10-13T15:46:34.630Z,11.94
2022-10-13T15:49:02.172Z,11.92
2022-10-13T15:51:30.321Z,11.93
2022-10-13T15:53:57.877Z,11.86
2022-10-13T15:56:25.405Z,11.83
2022-10-13T15:58:53.318Z,11.77
2022-10-13T16:01:20.903Z,11.73
2022-10-13T16:03:48.538Z,11.72
2022-10-13T16:06:16.273Z,11.68
2022-10-13T16:08:44.379Z,11.70
2022-10-13T16:11:16.406Z,11.65
2022-10-13T16:13:48.723Z,11.56
2022-10-13T16:16:17.182Z,11.54
2022-10-13T16:18:45.406Z,11.54
2022-10-13T16:21:23.174Z,11.47
2022-10-13T16:23:50.686Z,11.41
2022-10-13T16:26:19.828Z,11.40
2022-10-13T16:28:47.821Z,11.36
2022-10-13T16:31:16.999Z,11.33
2022-10-13T16:33:46.117Z,11.31
2022-10-13T16:36:17.149Z,11.27
2022-10-13T16:38:45.954Z,11.29
2022-10-13T16:41:18.546Z,11.28
2022-10-13T16:43:47.585Z,11.25
2022-10-13T16:46:18.755Z,11.30
2022-10-13T16:48:47.294Z,11.24
2022-10-13T16:51:18.520Z,11.17
2022-10-13T16:53:50.559Z,11.14
2022-10-13T16:56:22.597Z,11.13
2022-10-13T16:58:58.115Z,11.04
2022-10-13T17:01:28.048Z,11.00
2022-10-13T17:03:56.300Z,10.99
2022-10-13T17:06:26.944Z,11.00
2022-10-13T17:08:58.300Z,10.95
2022-10-13T17:11:30.062Z,10.91
2022-10-13T17:13:59.416Z,10.99
2022-10-13T17:16:33.152Z,10.91
2022-10-13T17:19:03.635Z,10.85
2022-10-13T17:21:33.945Z,10.81
2022-10-13T17:24:01.757Z,10.74
2022-10-13T17:26:29.403Z,10.74
2022-10-13T17:28:57.044Z,10.74
2022-10-13T17:31:25.214Z,10.70
2022-10-13T17:33:54.654Z,10.69
2022-10-13T17:36:27.731Z,10.70
2022-10-13T17:38:56.780Z,10.63
2022-10-13T17:41:24.758Z,10.60
2022-10-13T17:43:52.505Z,10.55
2022-10-13T17:46:36.972Z,10.53
2022-10-13T17:49:07.223Z,10.47
2022-10-13T17:51:35.003Z,10.46
2022-10-13T17:54:02.579Z,10.47
2022-10-13T17:56:30.243Z,10.42
2022-10-13T17:58:59.121Z,10.41
2022-10-13T18:01:30.352Z,10.41
2022-10-13T18:04:00.804Z,10.36
2022-10-13T18:06:32.609Z,10.43
2022-10-13T18:09:19.456Z,10.41
2022-10-13T18:11:50.930Z,10.41
2022-10-13T18:14:24.045Z,10.37
2022-10-13T18:16:52.550Z,10.36
2022-10-13T18:19:21.839Z,10.37
2022-10-13T18:21:50.265Z,10.35
2022-10-13T18:24:19.061Z,10.34
2022-10-13T18:26:47.064Z,10.27
2022-10-13T18:29:15.539Z,10.33
2022-10-13T18:31:43.218Z,10.28
2022-10-13T18:34:13.782Z,10.27
2022-10-13T18:36:42.849Z,10.26
2022-10-13T18:39:13.490Z,10.20
2022-10-13T18:41:45.429Z,10.13
2022-10-13T18:44:13.651Z,10.14
2022-10-13T18:46:41.349Z,10.20
2022-10-13T18:49:12.631Z,10.14
2022-10-13T18:51:42.583Z,10.09
2022-10-13T18:54:10.576Z,10.04
2022-10-13T18:56:38.545Z,10.03
2022-10-13T18:59:07.671Z,9.82
2022-10-13T19:01:38.322Z,9.81
2022-10-13T19:04:06.561Z,9.70
2022-10-13T19:06:34.500Z,9.68
2022-10-13T19:09:11.100Z,9.67
2022-10-13T19:11:41.133Z,9.58
2022-10-13T19:14:11.927Z,9.48
2022-10-13T19:16:42.313Z,9.51
2022-10-13T19:19:10.685Z,9.44
2022-10-13T19:21:42.092Z,9.38
2022-10-13T19:24:10.346Z,9.42
2022-10-13T19:26:38.752Z,9.44
2022-10-13T19:29:09.698Z,9.44
2022-10-13T19:31:39.307Z,9.44
2022-10-13T19:34:11.266Z,9.41
2022-10-13T19:36:48.323Z,9.37
2022-10-13T19:39:23.508Z,9.31
2022-10-13T19:41:53.588Z,9.27
2022-10-13T19:44:22.533Z,9.26
2022-10-13T19:46:51.874Z,9.25
2022-10-13T19:49:21.824Z,9.20
2022-10-13T19:51:50.376Z,9.19
2022-10-13T19:54:19.198Z,9.23
2022-10-13T19:56:48.776Z,9.27
2022-10-13T19:59:17.609Z,9.24
2022-10-13T20:01:46.059Z,9.24
2022-10-13T20:04:16.011Z,9.18
2022-10-13T20:06:51.989Z,9.18
2022-10-13T20:09:22.518Z,9.20
2022-10-13T20:11:55.972Z,9.12
2022-10-13T20:14:23.605Z,9.07
2022-10-13T20:16:53.498Z,9.09
2022-10-13T20:19:23.018Z,9.07
2022-10-13T20:21:52.944Z,9.08
2022-10-13T20:24:23.158Z,9.04
2022-10-13T20:26:51.086Z,9.01
2022-10-13T20:29:22.782Z,9.06
2022-10-13T20:31:50.857Z,9.04
2022-10-13T20:34:18.352Z,8.98
2022-10-13T20:36:45.967Z,9.02
2022-10-13T20:39:14.527Z,9.01
2022-10-13T20:41:42.320Z,8.98
2022-10-13T20:44:10.570Z,8.93
2022-10-13T20:46:38.046Z,8.91
2022-10-13T20:49:11.868Z,8.90
2022-10-13T20:51:43.043Z,8.89
2022-10-13T20:54:12.489Z,8.82
2022-10-13T20:56:40.766Z,8.87
2022-10-13T20:59:12.237Z,8.86
2022-10-13T21:01:39.765Z,8.80
2022-10-13T21:04:08.019Z,8.85
2022-10-13T21:06:36.484Z,8.87
2022-10-13T21:09:07.660Z,8.73
2022-10-13T21:11:35.856Z,8.65
2022-10-13T21:14:06.891Z,8.64
2022-10-13T21:16:35.718Z,8.68
2022-10-13T21:19:07.876Z,8.61
2022-10-13T21:21:36.401Z,8.62
2022-10-13T21:24:06.736Z,8.70
2022-10-13T21:26:35.633Z,8.67
2022-10-13T21:29:03.912Z,8.65
2022-10-13T21:31:34.812Z,8.69
2022-10-13T21:34:02.401Z,8.75
2022-10-13T21:36:32.362Z,8.67
2022-10-13T21:39:03.411Z,8.64
2022-10-13T21:41:31.700Z,8.63
2022-10-13T21:43:59.770Z,8.60
2022-10-13T21:46:33.063Z,8.59
2022-10-13T21:49:04.505Z,8.56
2022-10-13T21:51:37.750Z,8.59
2022-10-13T21:54:12.214Z,8.53
2022-10-13T21:56:41.192Z,8.47
2022-10-13T21:59:11.439Z,8.53
2022-10-13T22:01:39.168Z,8.47
2022-10-13T22:04:09.949Z,8.53
2022-10-13T22:06:37.625Z,8.55
2022-10-13T22:09:07.001Z,8.57
2022-10-13T22:11:37.752Z,8.56
2022-10-13T22:14:11.773Z,8.53
2022-10-13T22:16:45.211Z,8.54
2022-10-13T22:19:16.094Z,8.55
2022-10-13T22:21:46.807Z,8.49
2022-10-13T22:24:17.188Z,8.47
2022-10-13T22:26:46.608Z,8.44
2022-10-13T22:29:17.024Z,8.40
2022-10-13T22:31:46.737Z,8.42
2022-10-13T22:34:15.066Z,8.33
2022-10-13T22:36:45.010Z,8.25
2022-10-13T22:39:14.044Z,8.11
2022-10-13T22:41:42.726Z,7.94
2022-10-13T22:44:10.648Z,7.92
2022-10-13T22:46:39.055Z,7.82
2022-10-13T22:49:07.760Z,7.73
2022-10-13T22:51:36.645Z,7.62
2022-10-13T22:54:04.640Z,7.68
2022-10-13T22:56:34.382Z,7.62
2022-10-13T22:59:08.103Z,7.46
2022-10-13T23:01:36.427Z,7.42
2022-10-13T23:04:04.239Z,7.33
2022-10-13T23:06:33.384Z,7.40
2022-10-13T23:09:04.901Z,7.42
2022-10-13T23:11:32.463Z,7.35
2022-10-13T23:14:02.884Z,7.33
2022-10-13T23:16:31.126Z,7.34
2022-10-13T23:19:02.629Z,7.16
2022-10-13T23:21:31.038Z,7.16
2022-10-13T23:24:05.176Z,7.08
2022-10-13T23:26:34.379Z,7.10
2022-10-13T23:29:02.389Z,7.10
2022-10-13T23:31:30.105Z,7.10
2022-10-13T23:33:58.739Z,7.03
2022-10-13T23:36:30.253Z,7.07
2022-10-13T23:39:06.368Z,7.09
2022-10-13T23:41:34.580Z,7.07
2022-10-13T23:44:02.323Z,7.09
2022-10-13T23:46:30.080Z,7.06
2022-10-13T23:48:57.602Z,7.03
2022-10-13T23:51:26.275Z,7.04
2022-10-13T23:53:54.773Z,7.01
2022-10-13T23:56:23.614Z,7.10
2022-10-13T23:58:52.819Z,7.04
